createdAt,value
2019-02-14T00:00:18.564Z,30.2
2019-02-14T00:01:08.093Z,30.3
2019-02-14T00:02:12.997Z,30.4
2019-02-14T00:02:48.219Z,29.5
2019-02-14T00:03:37.832Z,29.4
2019-02-14T00:04:28.634Z,29.4
2019-02-14T00:05:39.134Z,29.3
2019-02-14T00:06:08.329Z,29.1
2019-02-14T00:06:58.217Z,29.1
2019-02-14T00:07:48.492Z,28.9
2019-02-14T00:08:38.286Z,28.9
2019-02-14T00:09:28.124Z,28.8
2019-02-14T00:10:17.669Z,28.7
2019-02-14T00:11:08.837Z,28.6
2019-02-14T00:11:58.559Z,28.4
2019-02-14T00:12:48.681Z,27.6
2019-02-14T00:13:38.418Z,27.1
2019-02-14T00:14:28.723Z,26.8
2019-02-14T00:15:17.941Z,26.5
2019-02-14T00:16:09.683Z,26.3
2019-02-14T00:16:58.826Z,25.8
2019-02-14T00:17:48.033Z,26.4
2019-02-14T00:18:38.733Z,27.1
2019-02-14T00:19:29.083Z,27.6
2019-02-14T00:20:18.049Z,28.2
2019-02-14T00:21:08.553Z,28.4
2019-02-14T00:21:58.710Z,28.6
2019-02-14T00:22:48.770Z,28.8
2019-02-14T00:23:38.513Z,29
2019-02-14T00:24:29.170Z,29.2
2019-02-14T00:25:18.698Z,29.4
2019-02-14T00:26:09.790Z,29.5
2019-02-14T00:26:59.111Z,29.7
2019-02-14T00:27:50.125Z,29.8
2019-02-14T00:28:39.716Z,30
2019-02-14T00:29:30.739Z,30.1
2019-02-14T00:30:20.095Z,30.2
2019-02-14T00:31:09.061Z,30.3
2019-02-14T00:31:59.691Z,30.4
2019-02-14T00:32:49.438Z,30.1
2019-02-14T00:33:40.480Z,29.5
2019-02-14T00:34:31.315Z,29.4
2019-02-14T00:35:28.780Z,29.3
2019-02-14T00:36:09.722Z,29.3
2019-02-14T00:36:59.702Z,29.1
2019-02-14T00:37:50.664Z,29.1
2019-02-14T00:38:40.589Z,28.9
2019-02-14T00:39:30.412Z,28.8
2019-02-14T00:40:20.662Z,28.8
2019-02-14T00:41:11.037Z,28.7
2019-02-14T00:42:00.669Z,28.6
2019-02-14T00:42:50.602Z,27.8
2019-02-14T00:43:39.867Z,27.2
2019-02-14T00:44:31.449Z,26.8
2019-02-14T00:45:35.927Z,26.5
2019-02-14T00:46:10.325Z,26.3
2019-02-14T00:47:00.346Z,25.9
2019-02-14T00:47:51.258Z,26.3
2019-02-14T00:48:41.029Z,27
2019-02-14T00:49:30.274Z,27.5
2019-02-14T00:50:21.120Z,28.1
2019-02-14T00:51:09.779Z,28.4
2019-02-14T00:52:00.738Z,28.6
2019-02-14T00:52:51.838Z,28.8
2019-02-14T00:53:41.121Z,29
2019-02-14T00:54:32.175Z,29.1
2019-02-14T00:55:21.443Z,29.3
2019-02-14T00:56:11.011Z,29.5
2019-02-14T00:57:00.468Z,29.6
2019-02-14T00:57:52.141Z,29.8
2019-02-14T00:58:41.403Z,29.9
2019-02-14T00:59:32.268Z,30
2019-02-14T01:00:21.817Z,30.1
2019-02-14T01:01:12.149Z,30.3
2019-02-14T01:02:52.021Z,28.8
2019-02-14T01:03:42.349Z,27.6
2019-02-14T01:04:31.591Z,26
2019-02-14T01:05:24.110Z,24.9
2019-02-14T01:06:11.934Z,24.8
2019-02-14T01:07:01.750Z,24.9
2019-02-14T01:07:53.225Z,26
2019-02-14T01:08:42.200Z,26.8
2019-02-14T01:09:33.275Z,27.6
2019-02-14T01:10:22.296Z,28.1
2019-02-14T01:11:13.010Z,28.5
2019-02-14T01:12:17.840Z,28.8
2019-02-14T01:12:53.363Z,29.1
2019-02-14T01:13:43.045Z,29.3
2019-02-14T01:14:32.855Z,29.5
2019-02-14T01:15:22.876Z,29.7
2019-02-14T01:16:12.620Z,29.9
2019-02-14T01:17:03.060Z,30
2019-02-14T01:17:53.282Z,30.1
2019-02-14T01:18:42.414Z,30.3
2019-02-14T01:19:33.652Z,30.3
2019-02-14T01:20:23.184Z,29.5
2019-02-14T01:21:13.002Z,29.4
2019-02-14T01:22:02.435Z,29.4
2019-02-14T01:22:53.334Z,29.3
2019-02-14T01:23:58.611Z,29.1
2019-02-14T01:24:47.854Z,29
2019-02-14T01:25:23.802Z,28.9
2019-02-14T01:26:13.504Z,28.9
2019-02-14T01:27:04.466Z,28.8
2019-02-14T01:27:53.682Z,28.8
2019-02-14T01:28:43.490Z,28.7
2019-02-14T01:29:48.517Z,27.9
2019-02-14T01:30:24.152Z,27.1
2019-02-14T01:31:14.014Z,26.9
2019-02-14T01:32:03.157Z,26.6
2019-02-14T01:33:08.399Z,26.4
2019-02-14T01:33:44.085Z,25.8
2019-02-14T01:34:33.857Z,26.2
2019-02-14T01:35:23.368Z,26.9
2019-02-14T01:36:14.201Z,27.5
2019-02-14T01:37:04.313Z,28.1
2019-02-14T01:37:54.796Z,28.4
2019-02-14T01:38:43.911Z,28.6
2019-02-14T01:39:34.244Z,28.8
2019-02-14T01:40:24.850Z,29
2019-02-14T01:41:15.133Z,29.1
2019-02-14T01:42:04.651Z,29.4
2019-02-14T01:42:55.303Z,29.6
2019-02-14T01:43:45.413Z,29.8
2019-02-14T01:44:34.823Z,29.9
2019-02-14T01:45:25.516Z,30
2019-02-14T01:46:15.675Z,30.1
2019-02-14T01:47:04.445Z,30.2
2019-02-14T01:47:55.383Z,30.3
2019-02-14T01:48:44.260Z,30.4
2019-02-14T01:49:34.826Z,29.5
2019-02-14T01:50:25.778Z,29.4
2019-02-14T01:51:15.447Z,29.4
2019-02-14T01:52:04.260Z,29.3
2019-02-14T01:52:55.118Z,29.1
2019-02-14T01:53:45.448Z,29
2019-02-14T01:54:35.494Z,28.9
2019-02-14T01:55:25.590Z,28.9
2019-02-14T01:56:16.420Z,28.8
2019-02-14T01:57:06.267Z,28.7
2019-02-14T01:57:55.457Z,28.6
2019-02-14T01:58:46.412Z,28.6
2019-02-14T01:59:35.562Z,27.9
2019-02-14T02:00:25.970Z,27.3
2019-02-14T02:01:15.455Z,26.8
2019-02-14T02:02:05.864Z,26.5
2019-02-14T02:02:56.159Z,26.3
2019-02-14T02:03:45.625Z,25.8
2019-02-14T02:04:35.969Z,26.4
2019-02-14T02:05:27.274Z,27.1
2019-02-14T02:07:05.762Z,28.2
2019-02-14T02:07:56.724Z,28.4
2019-02-14T02:08:47.026Z,28.6
2019-02-14T02:09:35.986Z,28.9
2019-02-14T02:10:25.539Z,29
2019-02-14T02:11:16.676Z,29.2
2019-02-14T02:12:21.564Z,29.4
2019-02-14T02:12:57.311Z,29.6
2019-02-14T02:13:47.096Z,29.8
2019-02-14T02:14:37.409Z,29.9
2019-02-14T02:15:41.896Z,30
2019-02-14T02:16:17.839Z,30.1
2019-02-14T02:17:07.366Z,30.2
2019-02-14T02:17:57.616Z,30.4
2019-02-14T02:18:47.981Z,30.3
2019-02-14T02:19:37.486Z,29.4
2019-02-14T02:20:36.758Z,29.4
2019-02-14T02:21:17.327Z,29.3
2019-02-14T02:22:07.333Z,29.3
2019-02-14T02:22:57.858Z,29.2
2019-02-14T02:23:47.546Z,29.1
2019-02-14T02:24:37.770Z,28.9
2019-02-14T02:25:27.946Z,28.9
2019-02-14T02:26:18.601Z,28.8
2019-02-14T02:27:08.298Z,28.8
2019-02-14T02:28:11.605Z,28.7
2019-02-14T02:28:48.109Z,27.7
2019-02-14T02:29:38.436Z,27.3
2019-02-14T02:30:28.346Z,26.9
2019-02-14T02:31:18.233Z,26.6
2019-02-14T02:32:07.852Z,26.4
2019-02-14T02:32:57.673Z,25.9
2019-02-14T02:33:47.865Z,26.3
2019-02-14T02:34:38.795Z,27
2019-02-14T02:35:28.903Z,27.6
2019-02-14T02:36:18.097Z,28.1
2019-02-14T02:37:08.464Z,28.4
2019-02-14T02:37:58.261Z,28.7
2019-02-14T02:38:48.132Z,28.9
2019-02-14T02:39:38.357Z,29.1
2019-02-14T02:40:28.935Z,29.3
2019-02-14T02:41:17.959Z,29.4
2019-02-14T02:42:08.315Z,29.6
2019-02-14T02:42:59.148Z,29.8
2019-02-14T02:43:48.998Z,29.9
2019-02-14T02:44:38.519Z,30
2019-02-14T02:45:28.827Z,30.1
2019-02-14T02:46:19.063Z,30.3
2019-02-14T02:47:24.080Z,30.3
2019-02-14T02:47:58.909Z,30.2
2019-02-14T02:48:48.970Z,29.6
2019-02-14T02:49:39.965Z,29.4
2019-02-14T02:50:30.228Z,29.4
2019-02-14T02:51:19.412Z,29.3
2019-02-14T02:52:10.372Z,29.2
2019-02-14T02:52:59.243Z,29.1
2019-02-14T02:53:49.896Z,28.9
2019-02-14T02:54:39.974Z,28.9
2019-02-14T02:55:29.953Z,28.8
2019-02-14T02:56:20.009Z,28.7
2019-02-14T02:57:09.547Z,28.6
2019-02-14T02:57:59.992Z,28.6
2019-02-14T02:58:50.459Z,27.9
2019-02-14T02:59:40.269Z,27.3
2019-02-14T03:01:19.374Z,26.4
2019-02-14T03:02:10.233Z,26.3
2019-02-14T03:02:59.993Z,25.8
2019-02-14T03:03:50.547Z,26.5
2019-02-14T03:04:39.226Z,27.1
2019-02-14T03:08:13.677Z,28.8
2019-02-14T03:09:03.995Z,28.9
2019-02-14T03:09:54.321Z,29
2019-02-14T03:10:44.045Z,28
2019-02-14T03:11:34.072Z,26.9
2019-02-14T03:12:23.063Z,25.8
2019-02-14T03:13:13.943Z,24.4
2019-02-14T03:14:04.048Z,23.2
2019-02-14T03:14:54.100Z,22.3
2019-02-14T03:15:43.247Z,22.4
2019-02-14T03:16:34.518Z,22.7
2019-02-14T03:17:22.887Z,24
2019-02-14T03:18:14.011Z,25
2019-02-14T03:19:03.819Z,25.9
2019-02-14T03:19:54.637Z,26.7
2019-02-14T03:20:43.877Z,27.4
2019-02-14T03:21:33.100Z,27.9
2019-02-14T03:22:24.294Z,28.3
2019-02-14T03:23:14.267Z,28.6
2019-02-14T03:24:04.889Z,28.8
2019-02-14T03:24:55.251Z,29
2019-02-14T03:25:44.706Z,29.2
2019-02-14T03:26:34.775Z,29.4
2019-02-14T03:27:25.109Z,29.6
2019-02-14T03:28:14.365Z,29.8
2019-02-14T03:29:04.944Z,29.9
2019-02-14T03:29:54.997Z,30.1
2019-02-14T03:30:44.722Z,30.2
2019-02-14T03:31:35.557Z,30.3
2019-02-14T03:32:25.607Z,30.4
2019-02-14T03:33:15.145Z,30.5
2019-02-14T03:34:05.011Z,29.8
2019-02-14T03:34:55.101Z,29.6
2019-02-14T03:35:45.696Z,29.6
2019-02-14T03:36:35.161Z,29.4
2019-02-14T03:37:24.669Z,29.3
2019-02-14T03:38:15.296Z,29.3
2019-02-14T03:39:05.145Z,29.1
2019-02-14T03:39:56.044Z,29.1
2019-02-14T03:40:45.192Z,29
2019-02-14T03:41:35.503Z,28.9
2019-02-14T03:42:26.131Z,28.9
2019-02-14T03:43:15.738Z,28.4
2019-02-14T03:44:05.208Z,27.6
2019-02-14T03:44:55.273Z,27.1
2019-02-14T03:45:46.083Z,26.8
2019-02-14T03:46:35.923Z,26.5
2019-02-14T03:47:25.471Z,26.1
2019-02-14T03:48:16.041Z,26.1
2019-02-14T03:49:06.110Z,26.9
2019-02-14T03:49:56.643Z,27.5
2019-02-14T03:50:45.883Z,28.1
2019-02-14T03:51:36.511Z,28.4
2019-02-14T03:52:25.803Z,28.6
2019-02-14T03:53:16.853Z,28.9
2019-02-14T03:54:06.165Z,29.1
2019-02-14T03:54:57.253Z,29.3
2019-02-14T03:55:46.750Z,29.4
2019-02-14T03:56:36.356Z,29.6
2019-02-14T03:57:26.108Z,29.8
2019-02-14T03:58:16.430Z,29.8
2019-02-14T03:59:07.547Z,29.9
2019-02-14T03:59:57.048Z,30.1
2019-02-14T04:00:45.970Z,30.3
2019-02-14T04:01:37.449Z,30.4
2019-02-14T04:02:26.920Z,30.4
2019-02-14T04:03:16.712Z,30.4
2019-02-14T04:04:06.260Z,29.6
2019-02-14T04:04:57.929Z,29.6
2019-02-14T04:05:47.556Z,29.5
2019-02-14T04:06:38.061Z,29.4
2019-02-14T04:07:27.832Z,29.2
2019-02-14T04:08:17.907Z,29.1
2019-02-14T04:09:08.199Z,29
2019-02-14T04:09:57.696Z,28.9
2019-02-14T04:10:47.489Z,28.9
2019-02-14T04:11:37.030Z,28.8
2019-02-14T04:12:27.886Z,28.8
2019-02-14T04:13:18.227Z,28.5
2019-02-14T04:14:08.009Z,27.6
2019-02-14T04:14:58.607Z,27.1
2019-02-14T04:15:47.874Z,26.7
2019-02-14T04:16:38.162Z,26.4
2019-02-14T04:17:28.771Z,26.2
2019-02-14T04:18:18.181Z,25.9
2019-02-14T04:19:07.549Z,26.6
2019-02-14T04:19:57.654Z,27.3
2019-02-14T04:20:47.680Z,27.8
2019-02-14T04:21:38.503Z,28.3
2019-02-14T04:22:29.118Z,28.5
2019-02-14T04:23:18.881Z,28.7
2019-02-14T04:24:07.872Z,28.9
2019-02-14T04:24:58.716Z,29.1
2019-02-14T04:25:48.646Z,29.3
2019-02-14T04:26:38.642Z,29.4
2019-02-14T04:27:28.923Z,29.6
2019-02-14T04:28:18.928Z,29.8
2019-02-14T04:29:09.335Z,29.9
2019-02-14T04:29:58.803Z,30
2019-02-14T04:30:49.476Z,30.1
2019-02-14T04:31:39.485Z,30.3
2019-02-14T04:32:29.783Z,30.3
2019-02-14T04:33:19.045Z,30.4
2019-02-14T04:34:09.905Z,29.7
2019-02-14T04:34:59.696Z,29.5
2019-02-14T04:35:49.505Z,29.4
2019-02-14T04:36:44.498Z,29.3
2019-02-14T04:37:29.872Z,29.1
2019-02-14T04:38:19.700Z,29
2019-02-14T04:39:09.735Z,28.9
2019-02-14T04:40:00.365Z,28.8
2019-02-14T04:40:49.780Z,28.6
2019-02-14T04:41:39.855Z,28.6
2019-02-14T04:42:29.912Z,28.4
2019-02-14T04:43:19.982Z,28.3
2019-02-14T04:44:09.757Z,27.5
2019-02-14T04:44:59.797Z,26.9
2019-02-14T04:45:50.703Z,26.6
2019-02-14T04:46:39.922Z,26.3
2019-02-14T04:47:30.242Z,26
2019-02-14T04:48:20.300Z,25.8
2019-02-14T04:49:09.562Z,26.6
2019-02-14T04:50:00.963Z,27.1
2019-02-14T04:50:51.087Z,27.8
2019-02-14T04:51:40.834Z,28.2
2019-02-14T04:52:31.197Z,28.4
2019-02-14T04:53:20.634Z,28.7
2019-02-14T04:54:11.274Z,28.8
2019-02-14T04:55:01.361Z,29.1
2019-02-14T04:55:50.540Z,29.3
2019-02-14T04:56:40.916Z,29.4
2019-02-14T04:57:30.927Z,29.5
2019-02-14T04:58:20.429Z,29.7
2019-02-14T04:59:11.309Z,29.8
2019-02-14T05:00:01.224Z,29.9
2019-02-14T05:00:50.911Z,30.1
2019-02-14T05:01:40.989Z,30.2
2019-02-14T05:02:30.724Z,29.8
2019-02-14T05:03:21.611Z,28.8
2019-02-14T05:04:11.679Z,27.2
2019-02-14T05:05:01.804Z,26.1
2019-02-14T05:05:51.522Z,24.9
2019-02-14T05:06:49.423Z,23.7
2019-02-14T05:07:31.934Z,22.4
2019-02-14T05:08:21.668Z,22
2019-02-14T05:09:11.992Z,22.2
2019-02-14T05:10:01.588Z,22.9
2019-02-14T05:10:52.108Z,24.2
2019-02-14T05:11:42.456Z,25.2
2019-02-14T05:12:33.363Z,26.1
2019-02-14T05:13:22.337Z,26.9
2019-02-14T05:14:11.510Z,27.6
2019-02-14T05:15:01.621Z,27.9
2019-02-14T05:15:52.188Z,28.3
2019-02-14T05:16:42.503Z,28.6
2019-02-14T05:17:33.957Z,28.8
2019-02-14T05:18:22.683Z,29.1
2019-02-14T05:19:12.185Z,29.3
2019-02-14T05:20:02.660Z,29.5
2019-02-14T05:20:52.847Z,29.8
2019-02-14T05:21:42.559Z,29.9
2019-02-14T05:22:32.393Z,30.1
2019-02-14T05:23:23.252Z,30.3
2019-02-14T05:24:12.740Z,30.4
2019-02-14T05:25:02.455Z,30.6
2019-02-14T05:25:53.175Z,30.8
2019-02-14T05:26:42.897Z,30.8
2019-02-14T05:27:32.762Z,30.9
2019-02-14T05:28:22.753Z,31
2019-02-14T05:29:12.810Z,31.1
2019-02-14T05:30:02.365Z,31.3
2019-02-14T05:30:53.469Z,31.3
2019-02-14T05:31:44.517Z,31.4
2019-02-14T05:32:33.604Z,31.4
2019-02-14T05:33:24.012Z,31.5
2019-02-14T05:34:13.682Z,31.6
2019-02-14T05:35:03.360Z,31.7
2019-02-14T05:35:54.129Z,31.8
2019-02-14T05:36:43.030Z,31.8
2019-02-14T05:37:33.665Z,30.8
2019-02-14T05:38:24.297Z,30.6
2019-02-14T05:39:13.753Z,30.5
2019-02-14T05:40:04.417Z,30.1
2019-02-14T05:40:54.153Z,29.9
2019-02-14T05:41:43.444Z,29.6
2019-02-14T05:42:33.776Z,29.4
2019-02-14T05:43:24.168Z,29.3
2019-02-14T05:44:14.109Z,29.1
2019-02-14T05:45:04.464Z,29.1
2019-02-14T05:45:54.494Z,29
2019-02-14T05:46:44.249Z,28.9
2019-02-14T05:47:34.612Z,28
2019-02-14T05:48:24.972Z,28.2
2019-02-14T05:49:14.706Z,28.7
2019-02-14T05:50:04.395Z,28.9
2019-02-14T05:50:54.535Z,29.1
2019-02-14T05:51:44.891Z,29.4
2019-02-14T05:52:35.267Z,29.5
2019-02-14T05:53:24.985Z,29.7
2019-02-14T05:54:15.040Z,29.8
2019-02-14T05:55:05.239Z,30
2019-02-14T05:55:55.238Z,30.1
2019-02-14T05:56:45.219Z,30.3
2019-02-14T05:57:34.959Z,30.4
2019-02-14T05:58:24.577Z,30.6
2019-02-14T05:59:15.082Z,30.6
2019-02-14T06:00:04.727Z,30.8
2019-02-14T06:00:55.012Z,30.8
2019-02-14T06:01:45.077Z,30.9
2019-02-14T06:02:36.829Z,31
2019-02-14T06:03:25.199Z,31.1
2019-02-14T06:06:13.049Z,31.4
2019-02-14T06:07:08.038Z,31.5
2019-02-14T06:07:52.711Z,31.6
2019-02-14T06:08:43.029Z,31.6
2019-02-14T06:09:33.455Z,31.6
2019-02-14T06:10:23.248Z,30.8
2019-02-14T06:11:12.881Z,30.6
2019-02-14T06:12:03.179Z,30.4
2019-02-14T06:12:53.570Z,30.1
2019-02-14T06:13:43.066Z,29.9
2019-02-14T06:14:33.400Z,29.6
2019-02-14T06:15:22.343Z,29.4
2019-02-14T06:16:14.000Z,29.3
2019-02-14T06:17:03.580Z,29.1
2019-02-14T06:17:52.531Z,29.1
2019-02-14T06:18:43.314Z,29
2019-02-14T06:19:48.399Z,28.4
2019-02-14T06:20:23.282Z,27.4
2019-02-14T06:21:13.821Z,27.3
2019-02-14T06:22:03.629Z,28
2019-02-14T06:22:54.206Z,28.6
2019-02-14T06:23:43.565Z,28.9
2019-02-14T06:24:34.538Z,29.1
2019-02-14T06:25:24.538Z,29.3
2019-02-14T06:26:13.618Z,29.5
2019-02-14T06:27:04.500Z,29.7
2019-02-14T06:27:55.201Z,29.9
2019-02-14T06:28:45.038Z,30.1
2019-02-14T06:29:49.489Z,30.2
2019-02-14T06:30:24.953Z,30.4
2019-02-14T06:31:15.602Z,30.5
2019-02-14T06:32:05.104Z,30.6
2019-02-14T06:32:55.172Z,30.8
2019-02-14T06:33:46.517Z,30.8
2019-02-14T06:34:34.393Z,29.6
2019-02-14T06:35:25.607Z,28.3
2019-02-14T06:36:15.129Z,26.8
2019-02-14T06:37:13.104Z,25.5
2019-02-14T06:37:55.523Z,24.1
2019-02-14T06:38:46.349Z,23.3
2019-02-14T06:39:35.860Z,23.4
2019-02-14T06:40:25.891Z,23.8
2019-02-14T06:41:15.401Z,25.1
2019-02-14T06:42:05.920Z,26.1
2019-02-14T06:42:55.083Z,26.9
2019-02-14T06:43:45.309Z,27.7
2019-02-14T06:44:35.749Z,28.3
2019-02-14T06:45:25.594Z,28.7
2019-02-14T06:46:15.174Z,29
2019-02-14T06:47:08.294Z,29.3
2019-02-14T06:47:55.608Z,29.6
2019-02-14T06:48:46.194Z,29.9
2019-02-14T06:49:35.138Z,30.1
2019-02-14T06:50:35.123Z,30.3
2019-02-14T06:51:16.581Z,30.6
2019-02-14T06:52:06.421Z,30.8
2019-02-14T06:53:11.437Z,30.9
2019-02-14T06:53:46.565Z,31.1
2019-02-14T06:54:36.578Z,31.2
2019-02-14T06:55:26.661Z,31.3
2019-02-14T06:56:16.480Z,31.4
2019-02-14T06:57:06.831Z,31.5
2019-02-14T06:57:56.341Z,31.6
2019-02-14T06:58:46.875Z,31.7
2019-02-14T06:59:51.853Z,31.5
2019-02-14T07:00:26.730Z,30.7
2019-02-14T07:01:17.298Z,30.7
2019-02-14T07:02:07.133Z,30.5
2019-02-14T07:02:56.922Z,30.1
2019-02-14T07:03:46.912Z,29.9
2019-02-14T07:07:21.577Z,29.4
2019-02-14T07:07:32.300Z,29.1
2019-02-14T07:08:22.364Z,29.1
2019-02-14T07:09:12.936Z,28.8
2019-02-14T07:10:02.571Z,28.1
2019-02-14T07:10:52.865Z,28.6
2019-02-14T07:11:42.557Z,29
2019-02-14T07:12:32.626Z,29.4
2019-02-14T07:13:22.977Z,30
2019-02-14T07:14:12.194Z,30.5
2019-02-14T07:15:03.452Z,30.5
2019-02-14T07:15:53.129Z,30
2019-02-14T07:16:43.239Z,29.7
2019-02-14T07:17:33.521Z,29.5
2019-02-14T07:18:22.459Z,29.3
2019-02-14T07:19:13.357Z,29.2
2019-02-14T07:20:03.164Z,29.1
2019-02-14T07:20:52.906Z,29
2019-02-14T07:21:43.852Z,28.9
2019-02-14T07:22:33.022Z,28.8
2019-02-14T07:23:22.802Z,28.7
2019-02-14T07:24:13.442Z,28.6
2019-02-14T07:25:03.519Z,28.3
2019-02-14T07:25:54.153Z,27.8
2019-02-14T07:26:43.124Z,27.5
2019-02-14T07:27:33.842Z,27.3
2019-02-14T07:28:23.965Z,27.1
2019-02-14T07:29:13.774Z,26.8
2019-02-14T07:30:04.486Z,27.4
2019-02-14T07:30:53.569Z,28
2019-02-14T07:31:44.433Z,28.6
2019-02-14T07:32:34.571Z,29.1
2019-02-14T07:33:24.111Z,29.6
2019-02-14T07:34:13.861Z,30.1
2019-02-14T07:35:04.058Z,30.4
2019-02-14T07:35:54.518Z,29.9
2019-02-14T07:36:44.618Z,29.6
2019-02-14T07:37:34.829Z,29.4
2019-02-14T07:38:25.011Z,29.3
2019-02-14T07:39:16.433Z,29.1
2019-02-14T07:40:04.583Z,29
2019-02-14T07:40:54.930Z,28.9
2019-02-14T07:41:45.188Z,28.8
2019-02-14T07:42:33.835Z,28.7
2019-02-14T07:43:25.333Z,28.6
2019-02-14T07:44:14.483Z,28.5
2019-02-14T07:45:04.286Z,28
2019-02-14T07:45:55.262Z,27.6
2019-02-14T07:46:44.987Z,27.4
2019-02-14T07:47:34.997Z,27.2
2019-02-14T07:48:25.397Z,26.9
2019-02-14T07:49:15.118Z,26.8
2019-02-14T07:50:05.040Z,27.6
2019-02-14T07:50:55.274Z,28.2
2019-02-14T07:51:45.557Z,28.8
2019-02-14T07:52:35.399Z,29.4
2019-02-14T07:53:25.955Z,29.9
2019-02-14T07:54:15.759Z,30.4
2019-02-14T07:55:06.820Z,30.4
2019-02-14T07:55:55.621Z,29.9
2019-02-14T07:56:46.032Z,29.7
2019-02-14T07:57:36.072Z,29.5
2019-02-14T07:58:26.067Z,29.4
2019-02-14T07:59:16.087Z,29.3
2019-02-14T08:00:06.281Z,29.1
2019-02-14T08:00:56.321Z,29
2019-02-14T08:01:45.391Z,28.9
2019-02-14T08:02:35.893Z,28.8
2019-02-14T08:03:25.837Z,28.7
2019-02-14T08:04:15.446Z,28.4
2019-02-14T08:05:05.465Z,27.9
2019-02-14T08:05:56.268Z,27.6
2019-02-14T08:06:46.305Z,27.4
2019-02-14T08:07:43.870Z,27.2
2019-02-14T08:08:26.724Z,26.8
2019-02-14T08:09:17.104Z,27.1
2019-02-14T08:10:56.316Z,28.4
2019-02-14T08:11:46.638Z,29.1
2019-02-14T08:12:36.001Z,29.6
2019-02-14T08:13:29.294Z,30.1
2019-02-14T08:14:16.548Z,30.7
2019-02-14T08:15:07.255Z,30.2
2019-02-14T08:15:57.278Z,29.8
2019-02-14T08:16:47.275Z,29.6
2019-02-14T08:17:37.308Z,29.4
2019-02-14T08:18:27.093Z,29.3
2019-02-14T08:19:16.889Z,29.2
2019-02-14T08:20:07.090Z,29.1
2019-02-14T08:20:57.592Z,29
2019-02-14T08:21:46.845Z,28.9
2019-02-14T08:22:37.958Z,28.8
2019-02-14T08:23:27.767Z,28.7
2019-02-14T08:24:17.845Z,28.3
2019-02-14T08:25:06.910Z,27.9
2019-02-14T08:25:57.413Z,27.6
2019-02-14T08:26:47.930Z,27.4
2019-02-14T08:27:36.400Z,27.1
2019-02-14T08:28:28.445Z,26.9
2019-02-14T08:29:17.912Z,27.8
2019-02-14T08:30:08.835Z,28.4
2019-02-14T08:30:57.700Z,28.9
2019-02-14T08:31:48.353Z,29.5
2019-02-14T08:32:38.520Z,30.1
2019-02-14T08:33:27.372Z,30.6
2019-02-14T08:34:18.032Z,30.4
2019-02-14T08:35:10.917Z,30
2019-02-14T08:35:58.042Z,29.8
2019-02-14T08:36:48.997Z,29.6
2019-02-14T08:37:48.864Z,29.4
2019-02-14T08:38:28.007Z,29.3
2019-02-14T08:39:18.334Z,29.2
2019-02-14T08:40:08.666Z,29
2019-02-14T08:41:01.076Z,28.9
2019-02-14T08:41:49.027Z,28.8
2019-02-14T08:42:39.582Z,28.8
2019-02-14T08:43:29.444Z,28.6
2019-02-14T08:44:18.882Z,28.1
2019-02-14T08:45:08.939Z,27.8
2019-02-14T08:45:59.795Z,27.5
2019-02-14T08:46:49.869Z,27.3
2019-02-14T08:47:39.376Z,26.8
2019-02-14T08:48:28.870Z,27.3
2019-02-14T08:49:20.094Z,28.1
2019-02-14T08:50:09.851Z,28.6
2019-02-14T08:50:59.918Z,29.2
2019-02-14T08:51:49.677Z,29.8
2019-02-14T08:52:39.974Z,30.2
2019-02-14T08:53:29.203Z,30.7
2019-02-14T08:54:19.853Z,30.9
2019-02-14T08:55:11.805Z,30.3
2019-02-14T08:55:59.668Z,30
2019-02-14T08:56:48.589Z,29.8
2019-02-14T08:57:40.671Z,29.6
2019-02-14T08:58:30.671Z,29.4
2019-02-14T08:59:20.473Z,29.4
2019-02-14T09:00:09.978Z,29.3
2019-02-14T09:00:59.975Z,29.1
2019-02-14T09:01:50.143Z,29
2019-02-14T09:02:40.203Z,28.9
2019-02-14T09:03:29.636Z,28.8
2019-02-14T09:04:20.829Z,28.6
2019-02-14T09:05:10.854Z,28.1
2019-02-14T09:06:00.934Z,27.7
2019-02-14T09:06:49.821Z,27.4
2019-02-14T09:07:40.502Z,27
2019-02-14T09:08:31.080Z,27.7
2019-02-14T09:09:20.038Z,28.3
2019-02-14T09:10:10.610Z,28.9
2019-02-14T09:11:01.282Z,29.4
2019-02-14T09:11:50.745Z,30
2019-02-14T09:12:41.950Z,30.4
2019-02-14T09:13:31.134Z,30.8
2019-02-14T09:14:20.937Z,30.3
2019-02-14T09:15:10.752Z,29.9
2019-02-14T09:16:00.750Z,29.7
2019-02-14T09:16:50.812Z,29.5
2019-02-14T09:17:41.420Z,29.4
2019-02-14T09:18:31.502Z,29.3
2019-02-14T09:19:21.327Z,29.1
2019-02-14T09:20:11.582Z,29
2019-02-14T09:21:01.207Z,28.9
2019-02-14T09:21:51.432Z,28.8
2019-02-14T09:22:41.742Z,28.7
2019-02-14T09:23:31.861Z,28.6
2019-02-14T09:24:21.919Z,28.5
2019-02-14T09:25:11.708Z,28.4
2019-02-14T09:26:03.350Z,28.3
2019-02-14T09:26:51.820Z,27.8
2019-02-14T09:27:42.371Z,28.1
2019-02-14T09:28:31.589Z,28.7
2019-02-14T09:29:22.219Z,29.3
2019-02-14T09:30:12.571Z,29.8
2019-02-14T09:31:01.810Z,30.3
2019-02-14T09:31:52.103Z,30.8
2019-02-14T09:32:42.178Z,30.7
2019-02-14T09:33:32.553Z,30.3
2019-02-14T09:34:22.844Z,29.9
2019-02-14T09:35:11.223Z,29.7
2019-02-14T09:36:02.391Z,29.6
2019-02-14T09:36:52.218Z,29.4
2019-02-14T09:37:42.848Z,29.3
2019-02-14T09:38:32.278Z,29.2
2019-02-14T09:39:22.605Z,29.1
2019-02-14T09:40:13.047Z,29
2019-02-14T09:41:02.435Z,28.8
2019-02-14T09:41:52.583Z,28.8
2019-02-14T09:42:43.581Z,28.7
2019-02-14T09:43:38.108Z,28.6
2019-02-14T09:44:22.730Z,28.4
2019-02-14T09:45:12.936Z,28.2
2019-02-14T09:46:03.953Z,27.9
2019-02-14T09:46:53.723Z,28.5
2019-02-14T09:47:43.314Z,29.1
2019-02-14T09:48:33.191Z,29.6
2019-02-14T09:49:23.747Z,30.1
2019-02-14T09:50:13.233Z,30.7
2019-02-14T09:51:03.627Z,31.1
2019-02-14T09:51:53.876Z,30.5
2019-02-14T09:52:43.888Z,30.1
2019-02-14T09:53:33.972Z,29.8
2019-02-14T09:54:23.451Z,29.7
2019-02-14T09:55:14.340Z,29.5
2019-02-14T09:56:04.229Z,29.4
2019-02-14T09:56:54.467Z,29.3
2019-02-14T09:57:44.930Z,29.1
2019-02-14T09:58:34.038Z,29.1
2019-02-14T09:59:24.936Z,29
2019-02-14T10:00:14.800Z,28.8
2019-02-14T10:01:05.214Z,28.8
2019-02-14T10:01:54.591Z,28.6
2019-02-14T10:02:44.378Z,28.5
2019-02-14T10:03:34.716Z,28.4
2019-02-14T10:04:24.706Z,28
2019-02-14T10:07:13.646Z,29.4
2019-02-14T10:08:12.137Z,30.1
2019-02-14T10:08:53.473Z,30.7
2019-02-14T10:09:43.507Z,31
2019-02-14T10:10:33.514Z,30.5
2019-02-14T10:11:22.741Z,30.1
2019-02-14T10:12:13.136Z,29.9
2019-02-14T10:13:03.536Z,29.7
2019-02-14T10:13:53.580Z,29.6
2019-02-14T10:14:43.194Z,29.4
2019-02-14T10:15:33.491Z,29.3
2019-02-14T10:16:23.526Z,29.2
2019-02-14T10:17:23.548Z,29.1
2019-02-14T10:18:03.624Z,29
2019-02-14T10:18:53.916Z,28.9
2019-02-14T10:19:43.696Z,28.8
2019-02-14T10:20:33.838Z,28.6
2019-02-14T10:21:24.398Z,28.6
2019-02-14T10:22:12.866Z,28.4
2019-02-14T10:23:03.839Z,28.1
2019-02-14T10:23:53.593Z,28.1
2019-02-14T10:24:45.061Z,28.8
2019-02-14T10:25:34.382Z,29.4
2019-02-14T10:26:24.240Z,30
2019-02-14T10:27:14.014Z,30.5
2019-02-14T10:28:03.327Z,31.1
2019-02-14T10:28:53.311Z,30.7
2019-02-14T10:29:44.180Z,30.3
2019-02-14T10:30:34.248Z,29.9
2019-02-14T10:31:23.790Z,29.8
2019-02-14T10:32:14.662Z,29.6
2019-02-14T10:33:03.898Z,29.5
2019-02-14T10:33:55.102Z,29.4
2019-02-14T10:34:44.542Z,29.3
2019-02-14T10:35:34.557Z,29.2
2019-02-14T10:36:24.365Z,29.1
2019-02-14T10:37:15.220Z,28.9
2019-02-14T10:38:04.802Z,28.9
2019-02-14T10:38:55.653Z,28.8
2019-02-14T10:39:45.345Z,28.7
2019-02-14T10:40:34.642Z,28.6
2019-02-14T10:41:24.747Z,28.4
2019-02-14T10:42:14.660Z,27.9
2019-02-14T10:43:05.106Z,28.5
2019-02-14T10:43:56.564Z,29.1
2019-02-14T10:44:45.709Z,29.8
2019-02-14T10:45:35.864Z,30.3
2019-02-14T10:46:25.311Z,30.9
2019-02-14T10:47:15.012Z,31.3
2019-02-14T10:48:05.153Z,31.3
2019-02-14T10:48:56.000Z,31.4
2019-02-14T10:49:45.186Z,31.1
2019-02-14T10:50:36.121Z,30.6
2019-02-14T10:51:25.831Z,30.1
2019-02-14T10:52:16.720Z,29.9
2019-02-14T10:53:06.556Z,29.8
2019-02-14T10:53:55.439Z,29.6
2019-02-14T10:54:46.624Z,29.5
2019-02-14T10:55:36.147Z,29.4
2019-02-14T10:56:25.923Z,29.3
2019-02-14T10:57:16.556Z,28.8
2019-02-14T10:58:06.584Z,28.8
2019-02-14T10:58:59.644Z,29.6
2019-02-14T10:59:46.978Z,30.3
2019-02-14T11:00:36.543Z,30.9
2019-02-14T11:01:26.796Z,31
2019-02-14T11:02:17.405Z,30.5
2019-02-14T11:03:07.468Z,30.2
2019-02-14T11:03:56.496Z,29.9
2019-02-14T11:04:48.531Z,29.8
2019-02-14T11:05:39.226Z,29.6
2019-02-14T11:06:26.308Z,29.5
2019-02-14T11:07:19.461Z,29.4
2019-02-14T11:08:07.326Z,29.3
2019-02-14T11:08:57.595Z,29.2
2019-02-14T11:09:47.094Z,29.1
2019-02-14T11:10:37.721Z,29
2019-02-14T11:11:27.262Z,28.9
2019-02-14T11:12:16.998Z,28.8
2019-02-14T11:13:07.342Z,28.7
2019-02-14T11:13:57.719Z,28.6
2019-02-14T11:14:47.428Z,28.4
2019-02-14T11:15:37.238Z,28.1
2019-02-14T11:16:28.407Z,28.7
2019-02-14T11:17:18.432Z,29.3
2019-02-14T11:18:07.184Z,29.9
2019-02-14T11:18:57.990Z,30.4
2019-02-14T11:19:47.485Z,31.1
2019-02-14T11:20:38.375Z,30.8
2019-02-14T11:21:28.472Z,30.3